createdAt,value
2022-09-05T00:00:19.636Z,22.30
2022-09-05T00:03:29.707Z,22.30
2022-09-05T00:06:17.105Z,22.20
2022-09-05T00:09:05.605Z,22.20
2022-09-05T00:11:44.782Z,22.10
2022-09-05T00:15:16.218Z,22.10
2022-09-05T00:20:57.217Z,22.00
2022-09-05T00:24:31.785Z,22.00
2022-09-05T00:24:54.723Z,21.90
2022-09-05T00:28:25.794Z,21.90
2022-09-05T00:31:53.511Z,21.90
2022-09-05T00:35:19.473Z,21.80
2022-09-05T00:37:54.520Z,21.80
2022-09-05T00:40:32.640Z,21.80
2022-09-05T00:43:11.405Z,21.70
2022-09-05T00:46:11.091Z,21.70
2022-09-05T00:48:53.192Z,21.70
2022-09-05T00:52:05.060Z,21.60
2022-09-05T00:55:16.888Z,21.60
2022-09-05T00:58:18.046Z,21.60
2022-09-05T01:00:59.460Z,21.50
2022-09-05T01:03:51.393Z,21.50
2022-09-05T01:06:50.047Z,21.50
2022-09-05T01:09:47.668Z,21.50
2022-09-05T01:12:52.713Z,21.40
2022-09-05T01:15:44.620Z,21.40
2022-09-05T01:18:57.918Z,21.40
2022-09-05T01:22:09.513Z,21.40
2022-09-05T01:24:54.190Z,21.30
2022-09-05T01:28:30.857Z,21.30
2022-09-05T01:31:05.038Z,21.30
2022-09-05T01:34:04.741Z,21.30
2022-09-05T01:37:32.776Z,21.20
2022-09-05T01:40:25.905Z,21.20
2022-09-05T01:43:25.818Z,21.20
2022-09-05T01:46:11.617Z,21.20
2022-09-05T01:48:54.673Z,21.10
2022-09-05T01:52:08.244Z,21.10
2022-09-05T01:55:06.892Z,21.10
2022-09-05T01:57:58.363Z,21.10
2022-09-05T02:01:30.126Z,21.10
2022-09-05T02:04:35.581Z,21.10
2022-09-05T02:07:56.604Z,21.00
2022-09-05T02:11:04.821Z,21.00
2022-09-05T02:13:34.894Z,21.00
2022-09-05T02:16:35.232Z,21.00
2022-09-05T02:19:12.215Z,21.00
2022-09-05T02:22:11.227Z,20.90
2022-09-05T02:24:46.050Z,20.90
2022-09-05T02:27:53.585Z,20.90
2022-09-05T02:30:22.110Z,20.90
2022-09-05T02:33:12.595Z,20.90
2022-09-05T02:36:04.076Z,20.90
2022-09-05T02:45:02.533Z,20.80
2022-09-05T02:45:14.817Z,20.90
2022-09-05T02:45:26.847Z,20.90
2022-09-05T02:48:19.573Z,20.80
2022-09-05T02:57:23.295Z,20.90
2022-09-05T02:57:38.987Z,20.90
2022-09-05T02:58:06.230Z,20.90
2022-09-05T03:01:27.624Z,20.80
2022-09-05T03:04:20.070Z,20.80
2022-09-05T03:07:07.106Z,20.90
2022-09-05T03:10:53.242Z,20.90
2022-09-05T03:13:48.183Z,20.80
2022-09-05T03:16:51.145Z,20.90
2022-09-05T03:19:54.699Z,20.80
2022-09-05T03:22:43.252Z,20.80
2022-09-05T03:25:50.520Z,20.80
2022-09-05T03:29:04.987Z,20.70
2022-09-05T03:32:05.934Z,20.80
2022-09-05T03:35:08.462Z,20.70
2022-09-05T03:38:06.747Z,20.60
2022-09-05T03:41:07.715Z,20.70
2022-09-05T03:44:13.218Z,20.60
2022-09-05T03:47:14.423Z,20.60
2022-09-05T03:57:04.605Z,20.50
2022-09-05T03:57:17.818Z,20.50
2022-09-05T03:57:41.699Z,20.40
2022-09-05T04:00:25.867Z,20.40
2022-09-05T04:08:11.269Z,20.40
2022-09-05T04:08:16.456Z,20.40
2022-09-05T04:09:49.626Z,20.40
2022-09-05T04:12:25.105Z,20.40
2022-09-05T04:15:13.301Z,20.40
2022-09-05T04:17:50.793Z,20.40
2022-09-05T04:20:50.167Z,20.40
2022-09-05T04:23:30.324Z,20.40
2022-09-05T04:26:27.339Z,20.40
2022-09-05T04:29:42.735Z,20.40
2022-09-05T04:32:21.724Z,20.40
2022-09-05T04:35:38.257Z,20.30
2022-09-05T04:38:35.423Z,20.30
2022-09-05T04:41:13.287Z,20.30
2022-09-05T04:44:29.751Z,20.30
2022-09-05T04:47:16.756Z,20.30
2022-09-05T04:50:12.198Z,20.20
2022-09-05T04:53:17.598Z,20.20
2022-09-05T04:55:55.574Z,20.20
2022-09-05T04:59:08.977Z,20.10
2022-09-05T05:06:00.769Z,20.10
2022-09-05T05:06:15.112Z,20.10
2022-09-05T05:08:00.109Z,20.10
2022-09-05T05:16:14.925Z,20.10
2022-09-05T05:18:01.553Z,20.00
2022-09-05T05:18:16.108Z,20.00
2022-09-05T05:20:40.784Z,20.00
2022-09-05T05:23:12.297Z,20.00
2022-09-05T05:26:02.745Z,20.00
2022-09-05T05:29:08.201Z,20.00
2022-09-05T05:32:06.175Z,20.00
2022-09-05T05:34:41.597Z,20.10
2022-09-05T05:37:32.676Z,20.10
2022-09-05T05:40:31.636Z,20.10
2022-09-05T05:43:19.090Z,20.10
2022-09-05T05:45:46.688Z,20.20
2022-09-05T05:48:38.213Z,20.20
2022-09-05T05:51:38.420Z,20.20
2022-09-05T05:55:24.373Z,20.30
2022-09-05T05:58:16.460Z,20.30
2022-09-05T06:00:55.752Z,20.40
2022-09-05T06:04:09.003Z,20.40
2022-09-05T06:07:03.656Z,20.50
2022-09-05T06:14:52.139Z,20.60
2022-09-05T06:14:57.750Z,20.60
2022-09-05T06:16:41.570Z,20.70
2022-09-05T06:22:07.165Z,20.80
2022-09-05T06:23:36.736Z,20.80
2022-09-05T06:26:32.281Z,21.00
2022-09-05T06:29:47.206Z,21.10
2022-09-05T06:33:08.720Z,21.20
2022-09-05T06:36:07.242Z,21.30
2022-09-05T06:39:40.161Z,21.40
2022-09-05T06:42:44.356Z,21.50
2022-09-05T06:46:08.332Z,21.70
2022-09-05T06:49:33.416Z,21.80
2022-09-05T06:52:24.951Z,21.90
2022-09-05T06:55:50.388Z,22.10
2022-09-05T06:59:16.156Z,22.20
2022-09-05T07:02:01.036Z,22.30
2022-09-05T07:05:23.441Z,22.40
2022-09-05T07:08:15.785Z,22.50
2022-09-05T07:11:15.957Z,22.70
2022-09-05T07:14:27.498Z,22.80
2022-09-05T07:17:17.141Z,22.90
2022-09-05T07:19:51.052Z,23.10
2022-09-05T07:22:48.111Z,23.10
2022-09-05T07:25:31.612Z,23.30
2022-09-05T07:28:28.862Z,23.40
2022-09-05T07:31:11.255Z,23.60
2022-09-05T07:33:42.836Z,23.70
2022-09-05T07:36:18.204Z,23.90
2022-09-05T07:39:02.320Z,24.00
2022-09-05T07:41:42.728Z,24.10
2022-09-05T07:44:23.809Z,24.30
2022-09-05T07:47:08.870Z,24.40
2022-09-05T07:49:42.254Z,24.50
2022-09-05T07:56:56.722Z,24.70
2022-09-05T07:57:08.507Z,24.80
2022-09-05T07:58:21.862Z,25.00
2022-09-05T08:00:58.382Z,25.10
2022-09-05T08:03:29.436Z,25.30
2022-09-05T08:06:05.513Z,25.40
2022-09-05T08:09:21.167Z,25.50
2022-09-05T08:11:45.286Z,25.70
2022-09-05T08:14:52.946Z,25.80
2022-09-05T08:17:30.107Z,26.00
2022-09-05T08:20:13.222Z,26.10
2022-09-05T08:23:23.969Z,26.30
2022-09-05T08:25:57.951Z,26.40
2022-09-05T08:28:55.478Z,26.60
2022-09-05T08:31:41.775Z,26.70
2022-09-05T08:34:39.805Z,26.80
2022-09-05T08:37:21.591Z,27.00
2022-09-05T08:40:13.862Z,27.10
2022-09-05T08:44:58.256Z,27.20
2022-09-05T08:46:42.970Z,27.40
2022-09-05T08:49:12.276Z,27.50
2022-09-05T08:51:54.354Z,27.60
2022-09-05T08:54:43.910Z,27.70
2022-09-05T08:58:00.986Z,27.80
2022-09-05T09:00:37.303Z,28.00
2022-09-05T09:03:39.915Z,28.20
2022-09-05T09:07:26.231Z,28.30
2022-09-05T09:10:39.407Z,28.50
2022-09-05T09:13:26.609Z,28.80
2022-09-05T09:16:33.628Z,29.10
2022-09-05T09:19:12.024Z,29.40
2022-09-05T09:22:30.466Z,29.80
2022-09-05T09:25:22.291Z,30.30
2022-09-05T09:28:50.345Z,30.90
2022-09-05T09:31:24.169Z,31.50
2022-09-05T09:34:03.243Z,32.10
2022-09-05T09:36:57.335Z,32.60
2022-09-05T09:40:04.740Z,33.00
2022-09-05T09:42:56.280Z,33.50
2022-09-05T09:45:55.935Z,33.90
2022-09-05T09:49:23.004Z,34.30
2022-09-05T09:52:34.426Z,34.80
2022-09-05T09:55:42.159Z,35.40
2022-09-05T09:58:15.160Z,35.70
2022-09-05T10:01:36.113Z,36.00
2022-09-05T10:10:39.611Z,36.20
2022-09-05T10:10:52.197Z,36.40
2022-09-05T10:14:42.154Z,36.90
2022-09-05T10:17:50.355Z,37.10
2022-09-05T10:21:16.435Z,37.40
2022-09-05T10:24:42.315Z,37.60
2022-09-05T10:27:25.187Z,37.80
2022-09-05T10:30:06.627Z,38.00
2022-09-05T10:35:09.161Z,38.10
2022-09-05T10:35:53.941Z,38.30
2022-09-05T10:39:16.213Z,38.40
2022-09-05T10:42:03.291Z,38.50
2022-09-05T10:44:58.630Z,38.70
2022-09-05T10:47:41.386Z,38.80
2022-09-05T10:50:28.016Z,38.80
2022-09-05T10:53:21.403Z,38.90
2022-09-05T10:55:54.707Z,39.00
2022-09-05T10:59:17.920Z,39.10
2022-09-05T11:02:29.804Z,39.10
2022-09-05T11:04:50.232Z,39.30
2022-09-05T11:07:34.798Z,39.30
2022-09-05T11:10:22.413Z,39.40
2022-09-05T11:12:58.872Z,39.50
2022-09-05T11:16:19.031Z,39.60
2022-09-05T11:19:06.052Z,39.70
2022-09-05T11:22:23.226Z,39.90
2022-09-05T11:25:05.015Z,40.00
2022-09-05T11:27:41.613Z,40.10
2022-09-05T11:30:28.903Z,40.10
2022-09-05T11:39:54.836Z,40.10
2022-09-05T11:39:58.407Z,40.10
2022-09-05T11:40:28.929Z,40.30
2022-09-05T11:44:24.868Z,40.30
2022-09-05T11:47:43.444Z,40.30
2022-09-05T11:51:00.377Z,40.40
2022-09-05T11:54:04.522Z,40.50
2022-09-05T11:57:33.692Z,40.60
2022-09-05T12:00:31.614Z,40.60
2022-09-05T12:03:58.776Z,40.60
2022-09-05T12:07:00.685Z,40.70
2022-09-05T12:09:57.292Z,40.80
2022-09-05T12:12:41.574Z,40.90
2022-09-05T12:15:37.836Z,41.00
2022-09-05T12:18:37.631Z,41.10
2022-09-05T12:21:54.289Z,41.10
2022-09-05T12:25:25.099Z,41.10
2022-09-05T12:30:41.729Z,41.20
2022-09-05T12:36:04.061Z,41.30
2022-09-05T12:40:48.263Z,41.30
2022-09-05T12:41:14.845Z,41.40
2022-09-05T12:41:41.715Z,41.20
2022-09-05T12:44:36.461Z,41.30
2022-09-05T12:46:07.002Z,41.30
2022-09-05T12:49:06.892Z,41.30
2022-09-05T12:51:47.686Z,41.30
2022-09-05T12:54:35.561Z,41.40
2022-09-05T12:57:58.990Z,41.50
2022-09-05T13:03:09.658Z,41.60
2022-09-05T13:03:26.797Z,41.70
2022-09-05T13:06:21.372Z,41.80
2022-09-05T13:09:01.879Z,41.70
2022-09-05T13:14:52.691Z,41.50
2022-09-05T13:14:55.288Z,41.30
2022-09-05T13:18:19.054Z,41.00
2022-09-05T13:21:02.455Z,40.80
2022-09-05T13:23:50.073Z,40.90
2022-09-05T13:26:37.647Z,41.00
2022-09-05T13:29:19.740Z,41.00
2022-09-05T13:37:59.308Z,40.90
2022-09-05T13:38:14.305Z,40.70
2022-09-05T13:38:29.014Z,40.40
2022-09-05T13:40:41.034Z,40.10
2022-09-05T13:43:22.100Z,39.80
2022-09-05T13:46:05.061Z,39.60
2022-09-05T13:52:00.559Z,39.00
2022-09-05T13:54:50.402Z,38.70
2022-09-05T13:57:47.628Z,38.40
2022-09-05T14:00:27.649Z,38.20
2022-09-05T14:03:37.701Z,37.90
2022-09-05T14:11:18.314Z,37.60
2022-09-05T14:15:08.255Z,37.50
2022-09-05T14:20:37.579Z,37.30
2022-09-05T14:23:15.899Z,37.20
2022-09-05T14:26:00.021Z,37.20
2022-09-05T14:28:40.967Z,37.10
2022-09-05T14:37:37.322Z,37.10
2022-09-05T14:37:42.574Z,37.10
2022-09-05T14:38:16.248Z,37.10
2022-09-05T14:42:07.937Z,37.10
2022-09-05T14:45:24.477Z,37.10
2022-09-05T14:48:14.769Z,37.10
2022-09-05T14:51:25.440Z,37.20
2022-09-05T14:54:00.469Z,37.40
2022-09-05T14:58:17.523Z,37.50
2022-09-05T15:02:53.580Z,37.50
2022-09-05T15:03:00.592Z,37.70
2022-09-05T15:05:29.938Z,37.80
2022-09-05T15:09:50.924Z,37.90
2022-09-05T15:12:19.930Z,38.00
2022-09-05T15:14:13.154Z,38.20
2022-09-05T15:16:56.454Z,38.30
2022-09-05T15:20:06.891Z,38.40
2022-09-05T15:22:42.048Z,38.40
2022-09-05T15:25:22.763Z,38.40
2022-09-05T15:27:51.134Z,38.40
2022-09-05T15:30:25.598Z,38.30
2022-09-05T15:33:26.178Z,38.40
2022-09-05T15:35:54.433Z,38.60
2022-09-05T15:38:54.486Z,38.60
2022-09-05T15:41:27.601Z,38.60
2022-09-05T15:44:23.918Z,38.80
2022-09-05T15:47:05.245Z,39.00
2022-09-05T15:49:50.221Z,39.30
2022-09-05T15:52:17.333Z,39.40
2022-09-05T15:55:01.736Z,39.40
2022-09-05T15:58:18.710Z,39.30
2022-09-05T16:00:55.618Z,39.10
2022-09-05T16:05:08.915Z,38.90
2022-09-05T16:10:35.755Z,38.70
2022-09-05T16:10:48.603Z,38.50
2022-09-05T16:12:44.827Z,38.30
2022-09-05T16:20:57.096Z,38.10
2022-09-05T16:23:17.072Z,37.90
2022-09-05T16:23:25.481Z,37.60
2022-09-05T16:24:59.154Z,37.40
2022-09-05T16:27:57.056Z,37.20
2022-09-05T16:30:36.599Z,36.80
2022-09-05T16:33:30.137Z,36.50
2022-09-05T16:36:18.225Z,36.20
2022-09-05T16:38:53.384Z,36.00
2022-09-05T16:41:29.411Z,35.70
2022-09-05T16:44:07.734Z,35.50
2022-09-05T16:46:51.381Z,35.30
2022-09-05T16:49:43.087Z,35.10
2022-09-05T16:52:17.772Z,34.90
2022-09-05T16:55:11.272Z,34.70
2022-09-05T16:57:59.371Z,34.50
2022-09-05T17:00:45.185Z,34.30
2022-09-05T17:03:53.468Z,34.20
2022-09-05T17:06:55.902Z,34.00
2022-09-05T17:09:38.804Z,33.90
2022-09-05T17:12:26.137Z,33.70
2022-09-05T17:15:03.320Z,33.60
2022-09-05T17:18:20.369Z,33.50
2022-09-05T17:20:57.182Z,33.40
2022-09-05T17:28:13.682Z,33.30
2022-09-05T17:29:47.362Z,33.20
2022-09-05T17:32:52.234Z,33.00
2022-09-05T17:35:53.783Z,32.90
2022-09-05T17:39:14.869Z,32.80
2022-09-05T17:41:56.538Z,32.70
2022-09-05T17:44:53.161Z,32.60
2022-09-05T17:47:53.951Z,32.50
2022-09-05T17:50:27.990Z,32.40
2022-09-05T17:53:26.022Z,32.30
2022-09-05T17:55:55.174Z,32.20
2022-09-05T17:58:28.266Z,32.10
2022-09-05T18:01:26.680Z,32.00
2022-09-05T18:04:15.784Z,31.80
2022-09-05T18:06:59.279Z,31.70
2022-09-05T18:09:47.969Z,31.60
2022-09-05T18:13:13.347Z,31.50
2022-09-05T18:15:36.621Z,31.40
2022-09-05T18:18:39.845Z,31.30
2022-09-05T18:21:21.769Z,31.20
2022-09-05T18:24:32.726Z,31.10
2022-09-05T18:27:31.012Z,31.00
2022-09-05T18:30:27.811Z,30.90
2022-09-05T18:33:56.353Z,30.80
2022-09-05T18:35:48.040Z,30.70
2022-09-05T18:38:51.690Z,30.60
2022-09-05T18:41:28.278Z,30.60
2022-09-05T18:44:13.699Z,30.50
2022-09-05T18:46:54.525Z,30.40
2022-09-05T18:50:21.653Z,30.30
2022-09-05T18:52:23.904Z,30.20
2022-09-05T18:56:10.184Z,30.10
2022-09-05T18:57:58.020Z,30.00
2022-09-05T19:00:46.885Z,29.80
2022-09-05T19:03:31.855Z,29.80
2022-09-05T19:06:36.524Z,29.60
2022-09-05T19:09:04.574Z,29.50
2022-09-05T19:12:34.992Z,29.40
2022-09-05T19:15:08.256Z,29.20
2022-09-05T19:17:47.478Z,29.10
2022-09-05T19:20:58.366Z,29.00
2022-09-05T19:23:40.582Z,28.80
2022-09-05T19:26:10.081Z,28.80
2022-09-05T19:36:44.536Z,28.70
2022-09-05T19:36:49.415Z,28.50
2022-09-05T19:37:06.457Z,28.50
2022-09-05T19:37:41.047Z,28.40
2022-09-05T19:47:28.523Z,28.20
2022-09-05T19:47:49.755Z,28.10
2022-09-05T19:47:50.994Z,28.20
2022-09-05T19:49:13.631Z,28.00
2022-09-05T19:51:42.053Z,27.90
2022-09-05T19:54:35.800Z,27.90
2022-09-05T19:57:14.740Z,27.80
2022-09-05T19:59:46.132Z,27.70
2022-09-05T20:02:37.798Z,27.70
2022-09-05T20:05:08.366Z,27.70
2022-09-05T20:07:53.149Z,27.60
2022-09-05T20:10:36.313Z,27.50
2022-09-05T20:13:26.797Z,27.50
2022-09-05T20:15:54.426Z,27.40
2022-09-05T20:18:59.517Z,27.40
2022-09-05T20:21:30.507Z,27.30
2022-09-05T20:23:59.953Z,27.30
2022-09-05T20:26:33.675Z,27.20
2022-09-05T20:29:09.207Z,27.20
2022-09-05T20:31:37.679Z,27.10
2022-09-05T20:36:43.996Z,27.10
2022-09-05T20:43:16.238Z,27.10
2022-09-05T20:43:21.749Z,27.10
2022-09-05T20:43:23.805Z,27.10
2022-09-05T20:46:17.569Z,27.10
2022-09-05T20:54:06.526Z,27.10
2022-09-05T20:54:19.753Z,27.10
2022-09-05T20:54:34.806Z,27.00
2022-09-05T20:57:19.736Z,27.10
2022-09-05T20:59:47.487Z,27.00
2022-09-05T21:02:26.305Z,27.00
2022-09-05T21:05:20.969Z,27.00
2022-09-05T21:08:07.085Z,26.90
2022-09-05T21:10:57.865Z,26.80
2022-09-05T21:13:52.812Z,26.80
2022-09-05T21:16:30.677Z,26.70
2022-09-05T21:18:58.092Z,26.60
2022-09-05T21:21:32.511Z,26.60
2022-09-05T21:24:17.344Z,26.50
2022-09-05T21:26:50.477Z,26.50
2022-09-05T21:29:32.313Z,26.40
2022-09-05T21:32:10.348Z,26.40
2022-09-05T21:34:47.395Z,26.30
2022-09-05T21:37:18.960Z,26.20
2022-09-05T21:39:59.590Z,26.20
2022-09-05T21:46:53.502Z,26.10
2022-09-05T21:47:40.384Z,26.10
2022-09-05T21:48:15.353Z,26.00
2022-09-05T21:50:49.662Z,26.00
2022-09-05T21:56:08.802Z,26.00
2022-09-05T21:59:16.682Z,26.00
2022-09-05T22:02:08.786Z,25.90
2022-09-05T22:04:40.879Z,26.00
2022-09-05T22:07:16.399Z,25.90
2022-09-05T22:09:56.841Z,25.90
2022-09-05T22:12:33.709Z,25.90
2022-09-05T22:15:28.373Z,25.90
2022-09-05T22:17:57.016Z,25.90
2022-09-05T22:20:44.435Z,25.90
2022-09-05T22:23:12.133Z,25.90
2022-09-05T22:25:40.050Z,25.90
2022-09-05T22:28:20.130Z,25.80
2022-09-05T22:30:53.908Z,25.80
2022-09-05T22:33:21.116Z,25.80
2022-09-05T22:35:48.481Z,25.70
2022-09-05T22:38:19.876Z,25.70
2022-09-05T22:40:48.044Z,25.70
2022-09-05T22:43:19.509Z,25.70
2022-09-05T22:45:47.289Z,25.70
2022-09-05T22:48:15.139Z,25.70
2022-09-05T22:50:42.926Z,25.70
2022-09-05T22:53:10.617Z,25.70
2022-09-05T22:55:41.646Z,25.70
2022-09-05T22:58:14.116Z,25.70
2022-09-05T23:00:41.957Z,25.60
2022-09-05T23:03:09.246Z,25.60
2022-09-05T23:05:36.525Z,25.60
2022-09-05T23:08:06.216Z,25.60
2022-09-05T23:10:35.527Z,25.50
2022-09-05T23:14:01.913Z,25.50
2022-09-05T23:16:29.471Z,25.50
2022-09-05T23:18:58.701Z,25.50
2022-09-05T23:21:25.871Z,25.40
2022-09-05T23:23:53.014Z,25.40
2022-09-05T23:26:20.569Z,25.30
2022-09-05T23:28:47.623Z,25.30
2022-09-05T23:31:15.042Z,25.30
2022-09-05T23:33:42.550Z,25.30
2022-09-05T23:36:16.102Z,25.20
2022-09-05T23:38:44.164Z,25.20
2022-09-05T23:41:16.017Z,25.20
2022-09-05T23:43:43.187Z,25.10
2022-09-05T23:46:10.732Z,25.10
2022-09-05T23:48:38.004Z,25.00
2022-09-05T23:51:07.968Z,25.00
2022-09-05T23:53:35.908Z,24.90
2022-09-05T23:56:05.825Z,24.80
2022-09-05T23:58:33.508Z,24.70
